Time;durP1;ratioP1;P1;durP2;ratioP2;P2;SDS_P1;SDS_P2;PMS_P1;PMS_P2;Temp;Humidity;BMP_temperature;BMP_pressure;BME280_temperature;BME280_humidity;BME280_pressure;Samples;Min_cycle;Max_cycle;Signal;HPM_P1;HPM_P2
2022/04/21 00:01:16;;;;;;;8.43;6.87;;;11.10;99.90;;;;;;5080738;28;20439;-81
2022/04/21 00:04:01;;;;;;;7.93;6.57;;;11.10;99.90;;;;;;5065420;28;20471;-81
2022/04/21 00:06:45;;;;;;;7.80;6.20;;;11.20;99.90;;;;;;5080697;28;20389;-82
2022/04/21 00:09:30;;;;;;;7.67;6.10;;;11.20;99.90;;;;;;5080647;28;20409;-82
2022/04/21 00:12:15;;;;;;;6.17;5.67;;;11.20;99.90;;;;;;5080639;28;20389;-81
2022/04/21 00:15:03;;;;;;;10.03;6.30;;;11.20;99.90;;;;;;5080563;28;20435;-81
2022/04/21 00:17:48;;;;;;;6.43;5.83;;;11.20;99.90;;;;;;5080356;28;20955;-82
2022/04/21 00:20:34;;;;;;;8.63;7.10;;;11.20;99.90;;;;;;5081008;28;20381;-80
2022/04/21 00:26:16;;;;;;;7.00;6.30;;;11.10;99.90;;;;;;5067319;28;20381;-81
2022/04/21 00:29:00;;;;;;;10.33;6.20;;;11.10;99.90;;;;;;5065490;28;20389;-82
2022/04/21 00:31:44;;;;;;;10.03;6.97;;;11.10;99.90;;;;;;5079399;28;20457;-81
2022/04/21 00:34:31;;;;;;;6.83;5.90;;;11.10;99.90;;;;;;5079784;28;20385;-82
2022/04/21 00:37:15;;;;;;;7.83;6.73;;;11.00;99.90;;;;;;5080091;28;20954;-81
2022/04/21 00:40:00;;;;;;;7.60;6.90;;;11.10;99.90;;;;;;5065143;28;20404;-82
2022/04/21 00:42:45;;;;;;;7.43;6.13;;;11.10;99.90;;;;;;5065134;28;20457;-82
2022/04/21 00:45:32;;;;;;;8.90;7.67;;;11.20;99.90;;;;;;5080326;28;20805;-81
2022/04/21 00:48:16;;;;;;;7.07;6.47;;;11.20;99.90;;;;;;5079743;28;20377;-82
2022/04/21 00:51:00;;;;;;;7.10;6.40;;;11.20;99.90;;;;;;5079420;28;20453;-82
2022/04/21 00:53:45;;;;;;;7.53;6.83;;;11.20;99.90;;;;;;5079523;28;20389;-81
2022/04/21 00:56:30;;;;;;;7.67;6.87;;;11.20;99.90;;;;;;5079830;28;20928;-81
2022/04/21 00:59:16;;;;;;;9.47;7.27;;;11.20;99.90;;;;;;5079987;28;20449;-81
2022/04/21 01:04:59;;;;;;;8.13;7.33;;;11.10;99.90;;;;;;5078896;28;20506;-81
2022/04/21 01:07:46;;;;;;;9.83;7.13;;;11.20;99.90;;;;;;5079943;28;20741;-82
2022/04/21 01:10:34;;;;;;;8.77;7.50;;;11.10;99.90;;;;;;5080015;28;20442;-82
2022/04/21 01:13:19;;;;;;;7.40;6.70;;;11.10;99.90;;;;;;5098630;28;20466;-77
2022/04/21 01:16:06;;;;;;;7.80;7.10;;;11.00;99.90;;;;;;5098801;28;20445;-79
2022/04/21 01:18:52;;;;;;;8.37;7.57;;;11.10;99.90;;;;;;5098780;28;20381;-78
2022/04/21 01:21:36;;;;;;;7.67;6.70;;;11.00;99.90;;;;;;5070524;28;20393;-81
2022/04/21 01:24:21;;;;;;;11.03;5.80;;;10.90;99.90;;;;;;5079862;28;20460;-81
2022/04/21 01:27:05;;;;;;;6.07;5.50;;;10.80;99.90;;;;;;5079656;28;20385;-81
2022/04/21 01:29:50;;;;;;;7.07;6.50;;;10.80;99.90;;;;;;5057549;28;20405;-81
2022/04/21 01:32:36;;;;;;;7.50;6.70;;;10.80;99.90;;;;;;5058554;28;20381;-82
2022/04/21 01:35:21;;;;;;;8.47;6.60;;;10.80;99.90;;;;;;5058709;28;20413;-81
2022/04/21 01:41:11;;;;;;;9.90;6.70;;;10.80;99.90;;;;;;5058347;28;20894;-81
2022/04/21 01:43:56;;;;;;;13.77;7.60;;;10.70;99.90;;;;;;5058862;28;20397;-81
2022/04/21 01:46:41;;;;;;;8.80;7.77;;;10.60;99.90;;;;;;5058615;28;20443;-81
2022/04/21 01:49:25;;;;;;;8.73;6.10;;;10.60;99.90;;;;;;5058481;28;20430;-81
2022/04/21 01:52:10;;;;;;;7.57;6.37;;;10.50;99.90;;;;;;5043958;28;20402;-81
2022/04/21 01:54:54;;;;;;;12.90;7.80;;;10.50;99.90;;;;;;5058804;28;20429;-81
2022/04/21 01:57:39;;;;;;;8.97;7.00;;;10.50;99.90;;;;;;5058879;28;20394;-81
2022/04/21 02:00:23;;;;;;;9.40;7.00;;;10.50;99.90;;;;;;5058652;28;20750;-81
2022/04/21 02:03:08;;;;;;;8.60;7.73;;;10.50;99.90;;;;;;5058060;28;20457;-81
2022/04/21 02:05:52;;;;;;;8.23;7.20;;;10.50;99.90;;;;;;5058056;28;20489;-81
2022/04/21 02:08:37;;;;;;;10.77;8.30;;;10.40;99.90;;;;;;5058976;28;20473;-81
2022/04/21 02:11:22;;;;;;;11.03;7.00;;;10.40;99.90;;;;;;5058641;28;20385;-81
2022/04/21 02:14:06;;;;;;;8.73;7.60;;;10.50;99.90;;;;;;5067173;28;20425;-82
2022/04/21 02:16:51;;;;;;;9.97;7.20;;;10.40;99.90;;;;;;5077189;28;20425;-80
2022/04/21 02:19:36;;;;;;;10.73;8.13;;;10.40;99.90;;;;;;5044548;28;20394;-82
2022/04/21 02:22:20;;;;;;;7.77;7.03;;;10.40;99.90;;;;;;5062257;28;20417;-79
2022/04/21 02:25:06;;;;;;;10.10;7.60;;;10.30;99.90;;;;;;5059923;28;20469;-81
2022/04/21 02:27:51;;;;;;;8.43;7.43;;;10.40;99.90;;;;;;5057800;28;20409;-81
2022/04/21 02:30:35;;;;;;;11.83;8.60;;;10.40;99.90;;;;;;5057128;28;20393;-81
2022/04/21 02:33:20;;;;;;;14.40;8.17;;;10.40;99.90;;;;;;5057839;28;20382;-81
2022/04/21 02:36:05;;;;;;;9.13;8.20;;;10.30;99.90;;;;;;5057815;28;20385;-81
2022/04/21 02:38:49;;;;;;;10.33;9.00;;;10.40;99.90;;;;;;5058179;28;20750;-80
2022/04/21 02:41:33;;;;;;;11.97;8.50;;;10.30;99.90;;;;;;5057284;28;20533;-81
2022/04/21 02:44:18;;;;;;;10.37;8.80;;;10.20;99.90;;;;;;5043023;28;20441;-80
2022/04/21 02:47:05;;;;;;;10.37;9.10;;;9.90;99.90;;;;;;4997229;28;20432;-81
2022/04/21 02:49:50;;;;;;;10.20;8.53;;;9.80;99.90;;;;;;4996579;28;20384;-80
2022/04/21 02:52:36;;;;;;;10.17;8.07;;;9.80;99.90;;;;;;4996803;28;20425;-81
2022/04/21 02:58:22;;;;;;;9.73;8.23;;;9.40;99.90;;;;;;5000256;28;20822;-80
2022/04/21 03:01:07;;;;;;;10.53;7.70;;;9.40;99.90;;;;;;5000111;28;20420;-81
2022/04/21 03:03:51;;;;;;;8.47;6.87;;;9.10;99.90;;;;;;5000009;28;20514;-81
2022/04/21 03:06:36;;;;;;;11.83;6.50;;;9.00;99.90;;;;;;5000229;28;20530;-81
2022/04/21 03:09:20;;;;;;;9.37;7.73;;;9.00;99.90;;;;;;4942905;29;20965;-81
2022/04/21 03:12:05;;;;;;;8.40;7.60;;;9.00;99.90;;;;;;4942342;29;20483;-81
2022/04/21 03:14:50;;;;;;;8.27;7.57;;;9.10;99.90;;;;;;4942012;29;20395;-81
2022/04/21 03:17:35;;;;;;;9.43;7.47;;;9.50;99.90;;;;;;4966755;28;20428;-81
2022/04/21 03:26:23;;;;;;;10.73;9.63;;;10.10;99.90;;;;;;4988879;28;20401;-81
2022/04/21 03:29:08;;;;;;;9.67;8.67;;;10.20;99.90;;;;;;5015121;28;20439;-81
2022/04/21 03:31:52;;;;;;;9.43;8.47;;;10.30;99.90;;;;;;5020428;28;20387;-81
2022/04/21 03:34:40;;;;;;;29.03;9.90;;;10.40;99.90;;;;;;5019058;28;20445;-81
2022/04/21 03:37:24;;;;;;;14.07;9.80;;;10.40;99.90;;;;;;5019462;28;20848;-81
2022/04/21 03:40:09;;;;;;;13.03;9.50;;;10.40;99.90;;;;;;5031188;28;20399;-81
2022/04/21 03:42:54;;;;;;;8.60;7.70;;;10.40;99.90;;;;;;5043396;28;20418;-80
2022/04/21 03:45:38;;;;;;;9.83;8.83;;;10.40;99.90;;;;;;5062503;28;20476;-81
2022/04/21 03:48:23;;;;;;;10.87;9.53;;;10.40;99.90;;;;;;5059599;28;20452;-81
2022/04/21 03:51:09;;;;;;;12.00;8.77;;;10.40;99.90;;;;;;5060827;28;20378;-81
2022/04/21 03:53:54;;;;;;;11.40;10.13;;;10.40;99.90;;;;;;5061099;28;20477;-81
2022/04/21 03:56:39;;;;;;;13.90;9.97;;;10.40;99.90;;;;;;5060740;28;20552;-80
2022/04/21 03:59:24;;;;;;;9.90;8.40;;;10.40;99.90;;;;;;5060824;28;20448;-81
2022/04/21 04:02:08;;;;;;;10.07;8.97;;;10.40;99.90;;;;;;5062984;28;20432;-81
2022/04/21 04:04:52;;;;;;;9.23;8.40;;;10.30;99.90;;;;;;5064226;28;20531;-80
2022/04/21 04:13:35;;;;;;;9.87;8.80;;;10.30;99.90;;;;;;5080702;28;20451;-81
2022/04/21 04:16:21;;;;;;;13.40;10.47;;;10.20;99.90;;;;;;5065171;28;20447;-81
2022/04/21 04:19:10;;;;;;;14.40;9.53;;;10.30;99.90;;;;;;5079968;28;20401;-81
2022/04/21 04:21:55;;;;;;;10.73;9.50;;;10.30;99.90;;;;;;5080657;28;20493;-80
2022/04/21 04:24:39;;;;;;;11.50;9.37;;;10.30;99.90;;;;;;5079662;28;21014;-81
2022/04/21 04:27:24;;;;;;;12.40;9.70;;;10.30;99.90;;;;;;5079152;28;20385;-82
2022/04/21 04:30:09;;;;;;;12.13;8.90;;;10.30;99.90;;;;;;5050961;28;20404;-81
2022/04/21 04:32:54;;;;;;;12.77;9.00;;;10.30;99.90;;;;;;5079821;28;20458;-81
2022/04/21 04:35:38;;;;;;;11.33;10.17;;;10.40;99.90;;;;;;5080078;28;20879;-82
2022/04/21 04:38:22;;;;;;;10.27;9.30;;;10.40;99.90;;;;;;5080728;28;20413;-82
2022/04/21 04:44:08;;;;;;;13.43;10.10;;;10.30;99.90;;;;;;5098386;28;20447;-80
2022/04/21 04:46:53;;;;;;;13.53;9.63;;;10.30;99.90;;;;;;5098228;28;20376;-77
2022/04/21 04:49:38;;;;;;;11.37;10.23;;;10.10;99.90;;;;;;5094624;28;20408;-81
2022/04/21 04:52:23;;;;;;;11.00;9.43;;;10.20;99.90;;;;;;5097781;28;20388;-81
2022/04/21 04:55:09;;;;;;;11.60;10.40;;;10.30;99.90;;;;;;5082207;28;20420;-82
2022/04/21 04:57:54;;;;;;;14.47;10.60;;;10.30;99.90;;;;;;5064245;28;20427;-82
2022/04/21 05:00:39;;;;;;;11.30;10.20;;;10.30;99.90;;;;;;5087640;28;20393;-81
2022/04/21 05:03:24;;;;;;;13.97;10.03;;;10.40;99.90;;;;;;5075882;28;20496;-81
2022/04/21 05:06:08;;;;;;;14.90;8.77;;;10.40;99.90;;;;;;5078946;28;20457;-81
2022/04/21 05:08:56;;;;;;;14.50;10.20;;;10.30;99.90;;;;;;5069331;28;20772;-82
2022/04/21 05:11:42;;;;;;;11.03;9.37;;;10.30;99.90;;;;;;5061184;28;20413;-81
2022/04/21 05:14:29;;;;;;;9.60;8.60;;;10.30;99.90;;;;;;5060305;28;20472;-81
2022/04/21 05:17:13;;;;;;;11.33;9.13;;;10.40;99.90;;;;;;5059794;28;20425;-80
2022/04/21 05:19:58;;;;;;;12.57;10.83;;;10.40;99.90;;;;;;5064429;28;20394;-82
2022/04/21 05:22:47;;;;;;;12.70;10.17;;;10.50;99.90;;;;;;5055633;28;20452;-82
2022/04/21 05:25:36;;;;;;;12.10;10.67;;;10.50;99.90;;;;;;5038922;28;20534;-81
2022/04/21 05:28:21;;;;;;;15.97;9.87;;;10.40;99.90;;;;;;5068567;28;20402;-81
2022/04/21 05:31:06;;;;;;;13.93;10.40;;;10.50;99.90;;;;;;5071743;28;20425;-83
2022/04/21 05:33:57;;;;;;;13.27;10.03;;;10.50;99.90;;;;;;5070844;28;20417;-82
2022/04/21 05:36:45;;;;;;;11.17;10.00;;;10.50;99.90;;;;;;5065168;28;20456;-81
2022/04/21 05:39:30;;;;;;;15.93;11.10;;;10.40;99.90;;;;;;5066820;28;20406;-82
2022/04/21 05:42:23;;;;;;;21.73;11.77;;;10.60;99.90;;;;;;5065408;28;20401;-82
2022/04/21 05:45:08;;;;;;;12.17;10.83;;;10.70;99.90;;;;;;5059256;28;20444;-81
2022/04/21 05:47:54;;;;;;;14.27;9.67;;;10.50;99.90;;;;;;5064090;28;20468;-81
2022/04/21 05:50:40;;;;;;;16.20;9.97;;;10.60;99.90;;;;;;5065374;28;20425;-82
2022/04/21 05:53:27;;;;;;;10.27;9.20;;;10.60;99.90;;;;;;5065211;28;20397;-82
2022/04/21 05:56:11;;;;;;;9.73;8.70;;;10.60;99.90;;;;;;5063392;28;20461;-81
2022/04/21 05:58:56;;;;;;;12.13;9.90;;;10.70;99.90;;;;;;5055872;28;20482;-82
2022/04/21 06:01:40;;;;;;;10.87;9.77;;;10.60;99.90;;;;;;5050094;28;20417;-81
2022/04/21 06:04:25;;;;;;;15.57;10.20;;;10.80;99.90;;;;;;5042300;28;20458;-82
2022/04/21 06:07:10;;;;;;;15.20;10.20;;;10.70;99.90;;;;;;5044962;28;20421;-82
2022/04/21 06:09:54;;;;;;;16.40;12.37;;;10.80;99.90;;;;;;5042085;28;20418;-82
2022/04/21 06:12:39;;;;;;;16.87;10.87;;;10.90;99.90;;;;;;5040235;28;20470;-83
2022/04/21 06:15:27;;;;;;;19.20;11.67;;;11.00;99.90;;;;;;5034371;28;20418;-82
2022/04/21 06:18:11;;;;;;;21.53;14.13;;;11.10;99.90;;;;;;5040341;28;20433;-82
2022/04/21 06:20:56;;;;;;;13.23;11.13;;;11.10;99.90;;;;;;5044412;28;20479;-83
2022/04/21 06:23:40;;;;;;;14.03;11.33;;;11.10;99.90;;;;;;5037896;28;20485;-82
2022/04/21 06:26:25;;;;;;;21.20;13.30;;;11.10;99.90;;;;;;5041010;28;20426;-82
2022/04/21 06:29:10;;;;;;;26.73;10.77;;;11.20;99.90;;;;;;5040180;28;20569;-82
2022/04/21 06:31:54;;;;;;;17.43;11.63;;;11.30;99.90;;;;;;5042399;28;20485;-81
2022/04/21 06:34:39;;;;;;;13.90;11.30;;;11.20;99.90;;;;;;5045689;28;20515;-82
2022/04/21 06:37:24;;;;;;;22.23;13.70;;;11.30;99.90;;;;;;5045129;28;20494;-80
2022/04/21 06:40:09;;;;;;;17.80;11.80;;;11.40;99.90;;;;;;5041772;28;20937;-82
2022/04/21 06:42:53;;;;;;;13.60;12.23;;;11.40;99.90;;;;;;5041973;28;20492;-81
2022/04/21 06:48:42;;;;;;;10.37;8.90;;;11.50;99.90;;;;;;5040466;28;20430;-82
2022/04/21 06:51:28;;;;;;;14.73;9.90;;;11.40;99.90;;;;;;5041709;28;20450;-82
2022/04/21 06:54:13;;;;;;;17.73;10.30;;;11.70;99.90;;;;;;5039245;28;20430;-81
2022/04/21 06:56:58;;;;;;;13.23;9.20;;;11.60;99.90;;;;;;5042222;28;20453;-83
2022/04/21 06:59:42;;;;;;;10.53;9.13;;;11.60;99.90;;;;;;5040426;28;20489;-83
2022/04/21 07:02:28;;;;;;;9.23;8.17;;;11.50;99.90;;;;;;5051719;28;20838;-81
2022/04/21 07:05:14;;;;;;;13.77;9.90;;;11.30;99.90;;;;;;5089970;28;20471;-82
2022/04/21 07:07:58;;;;;;;13.90;9.97;;;11.10;99.90;;;;;;5091608;28;20971;-82
2022/04/21 07:10:43;;;;;;;11.53;8.00;;;11.30;99.90;;;;;;5084815;28;20537;-82
2022/04/21 07:13:28;;;;;;;18.30;7.97;;;11.20;99.90;;;;;;5081304;28;20460;-80
2022/04/21 07:16:13;;;;;;;11.23;7.77;;;11.60;99.90;;;;;;5076144;28;20498;-81
2022/04/21 07:18:59;;;;;;;11.07;7.03;;;11.80;99.90;;;;;;5077867;28;20457;-82
2022/04/21 07:21:43;;;;;;;8.30;6.00;;;11.80;99.90;;;;;;5050509;28;20588;-81
2022/04/21 07:24:30;;;;;;;6.50;5.53;;;11.30;99.90;;;;;;5074536;28;20514;-81
2022/04/21 07:27:15;;;;;;;7.40;6.00;;;11.80;99.90;;;;;;5050262;28;20452;-82
2022/04/21 07:30:01;;;;;;;7.53;6.83;;;11.80;99.90;;;;;;5080739;28;20424;-82
2022/04/21 07:32:47;;;;;;;5.20;4.70;;;11.10;99.90;;;;;;5079758;28;20444;-81
2022/04/21 07:35:32;;;;;;;7.00;5.80;;;11.30;99.90;;;;;;5079598;28;20437;-82
2022/04/21 07:38:17;;;;;;;7.27;5.80;;;11.30;99.90;;;;;;5076491;28;20436;-82
2022/04/21 07:41:02;;;;;;;8.50;6.77;;;11.80;99.90;;;;;;5085136;28;20467;-81
2022/04/21 07:43:47;;;;;;;10.03;6.43;;;11.40;99.90;;;;;;5080519;28;20468;-80
2022/04/21 07:46:33;;;;;;;7.80;5.70;;;11.00;99.90;;;;;;5085866;28;20511;-82
2022/04/21 07:55:27;;;;;;;6.60;5.47;;;11.20;99.90;;;;;;5086517;28;20455;-81
2022/04/21 07:58:12;;;;;;;6.30;5.80;;;11.20;99.90;;;;;;5073256;28;20959;-82
2022/04/21 08:00:56;;;;;;;6.03;5.43;;;11.30;99.90;;;;;;5087191;28;20467;-81
2022/04/21 08:03:43;;;;;;;5.83;5.33;;;11.60;99.90;;;;;;5071144;28;20976;-82
2022/04/21 08:06:28;;;;;;;7.40;5.37;;;11.30;99.90;;;;;;5089026;28;20435;-83
2022/04/21 08:09:13;;;;;;;5.80;5.30;;;11.60;99.90;;;;;;5074332;28;20497;-83
2022/04/21 08:11:58;;;;;;;8.93;6.40;;;11.40;99.90;;;;;;5087535;28;20428;-83
2022/04/21 08:14:42;;;;;;;8.80;5.47;;;11.30;99.90;;;;;;5086406;28;20475;-82
2022/04/21 08:17:27;;;;;;;7.97;4.97;;;11.70;99.90;;;;;;5087501;28;20472;-82
2022/04/21 08:20:12;;;;;;;5.90;5.30;;;11.90;99.90;;;;;;5089171;28;20492;-82
2022/04/21 08:22:57;;;;;;;8.00;5.80;;;11.50;99.90;;;;;;5090408;28;20463;-81
2022/04/21 08:34:41;;;;;;;5.20;4.30;;;12.30;99.90;;;;;;5088852;28;20458;-82
2022/04/21 08:37:26;;;;;;;7.47;5.50;;;12.60;99.90;;;;;;5080664;28;20517;-81
2022/04/21 08:40:11;;;;;;;8.07;6.53;;;13.10;99.90;;;;;;5096202;28;20428;-80
2022/04/21 08:42:56;;;;;;;9.93;5.80;;;13.40;99.90;;;;;;5077855;28;20544;-79
2022/04/21 08:45:43;;;;;;;5.83;5.27;;;12.50;99.90;;;;;;5094415;28;20472;-79
2022/04/21 08:48:28;;;;;;;11.20;6.90;;;12.80;99.90;;;;;;5095536;27;20439;-79
2022/04/21 08:51:13;;;;;;;8.50;6.20;;;13.00;99.90;;;;;;5068021;28;20533;-83
2022/04/21 08:53:57;;;;;;;9.60;7.30;;;12.50;99.90;;;;;;5062553;28;20535;-82
2022/04/21 08:56:43;;;;;;;14.37;8.00;;;12.10;99.90;;;;;;5056469;28;20784;-83
2022/04/21 08:59:27;;;;;;;10.00;7.73;;;12.40;99.90;;;;;;5073775;28;20468;-85
2022/04/21 09:02:11;;;;;;;7.73;6.83;;;12.70;99.90;;;;;;5060846;28;20464;-83
2022/04/21 09:04:57;;;;;;;6.17;5.57;;;12.70;99.90;;;;;;5074092;28;20979;-84
2022/04/21 09:07:45;;;;;;;15.30;7.07;;;13.50;99.90;;;;;;5073448;28;20444;-84
2022/04/21 09:10:34;;;;;;;6.73;5.80;;;13.80;99.90;;;;;;5072706;28;20433;-82
2022/04/21 09:13:31;;;;;;;8.30;6.53;;;14.10;99.90;;;;;;5073507;28;20578;-84
2022/04/21 09:16:20;;;;;;;6.10;5.60;;;13.80;99.90;;;;;;5046925;28;20496;-83
2022/04/21 09:19:05;;;;;;;6.67;6.00;;;13.60;99.90;;;;;;5075983;28;20424;-83
2022/04/21 09:21:53;;;;;;;6.40;5.77;;;13.80;99.90;;;;;;5073843;28;20437;-84
2022/04/21 09:24:39;;;;;;;10.43;6.43;;;13.30;99.90;;;;;;5076150;28;20972;-85
2022/04/21 09:27:24;;;;;;;9.93;6.28;;;13.80;99.90;;;;;;5076660;28;20425;-84
2022/04/21 09:30:12;;;;;;;8.50;5.88;;;14.30;99.90;;;;;;5068220;28;20447;-81
2022/04/21 09:32:59;;;;;;;13.10;7.27;;;14.80;99.90;;;;;;5090577;28;20229;-82
2022/04/21 09:35:44;;;;;;;8.90;6.80;;;14.30;99.90;;;;;;5088748;28;20619;-83
2022/04/21 09:38:28;;;;;;;8.30;7.50;;;13.90;99.90;;;;;;5087489;28;20534;-83
2022/04/21 09:41:13;;;;;;;8.10;6.57;;;14.30;99.90;;;;;;5070502;28;20432;-82
2022/04/21 09:47:05;;;;;;;7.37;6.50;;;14.40;99.90;;;;;;5066292;28;20536;-84
2022/04/21 09:49:50;;;;;;;8.50;6.80;;;14.40;99.90;;;;;;5076503;28;20415;-84
2022/04/21 09:52:36;;;;;;;5.97;5.33;;;14.80;99.90;;;;;;5078951;28;20439;-84
2022/04/21 09:55:26;;;;;;;9.13;7.50;;;15.40;99.90;;;;;;5075260;28;20511;-85
2022/04/21 09:58:12;;;;;;;7.07;6.35;;;15.80;99.90;;;;;;5060314;28;20459;-80
2022/04/21 10:00:57;;;;;;;9.00;7.17;;;16.00;99.90;;;;;;5068793;28;20186;-82
2022/04/21 10:03:44;;;;;;;9.03;7.97;;;15.80;99.90;;;;;;5071902;28;20487;-79
2022/04/21 10:06:30;;;;;;;11.63;7.40;;;15.90;99.90;;;;;;5076972;28;20416;-79
2022/04/21 10:09:17;;;;;;;7.43;6.73;;;15.50;99.90;;;;;;5069309;28;20427;-83
2022/04/21 10:12:04;;;;;;;7.97;6.90;;;15.90;99.90;;;;;;5090945;28;20428;-82
2022/04/21 10:14:52;;;;;;;6.70;6.03;;;15.40;99.90;;;;;;5088976;28;20492;-81
2022/04/21 10:17:37;;;;;;;7.30;6.60;;;15.00;99.90;;;;;;5088750;28;20427;-84
2022/04/21 10:20:25;;;;;;;7.00;6.30;;;15.10;99.90;;;;;;5070550;28;20437;-83
2022/04/21 10:23:15;;;;;;;9.57;6.50;;;16.00;99.90;;;;;;5068185;28;20397;-84
2022/04/21 10:26:02;;;;;;;7.23;6.63;;;15.60;99.90;;;;;;5058948;28;20884;-83
2022/04/21 10:28:58;;;;;;;6.63;5.93;;;15.10;99.90;;;;;;4987871;28;20412;-85
2022/04/21 10:31:55;;;;;;;6.50;5.80;;;15.40;99.90;;;;;;4999220;28;20434;-85
2022/04/21 10:34:45;;;;;;;11.53;7.03;;;15.90;99.90;;;;;;4991854;28;20423;-82
2022/04/21 10:37:32;;;;;;;9.20;6.80;;;15.80;99.90;;;;;;5019923;28;20439;-82
2022/04/21 10:40:21;;;;;;;6.40;5.80;;;16.10;99.90;;;;;;5005725;28;20422;-84
2022/04/21 10:43:07;;;;;;;9.67;6.67;;;16.00;99.90;;;;;;5004990;28;20420;-82
2022/04/21 10:46:17;;;;;;;9.40;5.73;;;15.30;99.90;;;;;;5018649;28;20998;-83
2022/04/21 10:49:02;;;;;;;6.63;5.67;;;14.90;99.90;;;;;;4991754;28;20498;-83
2022/04/21 10:58:47;;;;;;;8.10;5.53;;;14.90;99.90;;;;;;5015609;28;20451;-82
2022/04/21 11:01:33;;;;;;;6.23;5.20;;;14.70;99.90;;;;;;5064590;28;20439;-84
2022/04/21 11:04:20;;;;;;;10.07;6.00;;;15.00;99.90;;;;;;5063306;28;20480;-83
2022/04/21 11:07:10;;;;;;;8.10;5.97;;;14.70;99.90;;;;;;5066459;28;20556;-81
2022/04/21 11:09:56;;;;;;;6.60;5.90;;;14.70;99.90;;;;;;5089881;28;20445;-80
2022/04/21 11:12:45;;;;;;;10.40;7.17;;;14.60;99.90;;;;;;5067173;28;20456;-80
2022/04/21 11:15:50;;;;;;;6.27;5.70;;;14.60;99.90;;;;;;5073936;28;20452;-80
2022/04/21 11:18:34;;;;;;;6.00;5.17;;;14.70;99.90;;;;;;5090362;28;20509;-80
2022/04/21 11:21:29;;;;;;;7.73;6.97;;;14.80;99.90;;;;;;5089944;28;20424;-80
2022/04/21 11:24:14;;;;;;;12.83;7.17;;;14.90;99.90;;;;;;5044158;28;20463;-81
2022/04/21 11:26:59;;;;;;;6.07;5.50;;;15.30;99.90;;;;;;5075207;28;20435;-80
2022/04/21 11:29:44;;;;;;;10.80;5.70;;;14.90;99.90;;;;;;5089496;28;20424;-79
2022/04/21 11:32:29;;;;;;;6.70;6.00;;;15.40;99.90;;;;;;5074030;28;20405;-81
2022/04/21 11:35:22;;;;;;;6.60;5.43;;;16.00;99.90;;;;;;5059987;28;20388;-79
2022/04/21 11:38:06;;;;;;;6.20;5.60;;;17.00;99.90;;;;;;5074822;28;20494;-80
2022/04/21 11:40:52;;;;;;;7.23;6.30;;;18.10;99.90;;;;;;5092101;28;20460;-80
2022/04/21 11:43:37;;;;;;;7.33;5.40;;;18.70;99.90;;;;;;5072177;28;20498;-81
2022/04/21 11:46:22;;;;;;;6.73;5.63;;;17.00;99.90;;;;;;5076189;28;20456;-81
2022/04/21 11:49:08;;;;;;;6.40;5.90;;;16.90;99.90;;;;;;5086444;28;20432;-81
2022/04/21 11:51:55;;;;;;;6.23;5.40;;;16.80;99.90;;;;;;5077521;28;20432;-80
2022/04/21 11:54:41;;;;;;;7.40;5.20;;;16.80;99.90;;;;;;5084842;28;20456;-80
2022/04/21 11:57:44;;;;;;;6.50;6.00;;;17.50;99.90;;;;;;5055840;28;20432;-80
2022/04/21 12:06:53;;;;;;;5.57;4.93;;;18.50;99.90;;;;;;5071363;28;20443;-83
2022/04/21 12:09:41;;;;;;;5.97;5.47;;;17.80;99.90;;;;;;5029206;28;20429;-84
2022/04/21 12:12:25;;;;;;;5.43;4.53;;;17.90;99.90;;;;;;5026240;28;20498;-84
2022/04/21 12:15:10;;;;;;;11.03;6.00;;;18.20;99.90;;;;;;5042756;28;20461;-85
2022/04/21 12:18:03;;;;;;;5.10;4.60;;;18.60;99.90;;;;;;4994759;28;20968;-84
2022/04/21 12:20:55;;;;;;;4.33;3.97;;;18.50;99.20;;;;;;5040753;28;20462;-84
2022/04/21 12:23:39;;;;;;;5.77;5.27;;;17.10;98.60;;;;;;5026790;28;20446;-84
2022/04/21 12:26:24;;;;;;;5.73;5.17;;;16.20;99.90;;;;;;5035039;28;20884;-84
2022/04/21 12:29:08;;;;;;;4.30;3.90;;;16.30;99.90;;;;;;5039305;28;20434;-84
2022/04/21 12:31:55;;;;;;;5.57;4.50;;;16.50;99.90;;;;;;5026722;28;20489;-83
2022/04/21 12:34:40;;;;;;;5.10;4.30;;;16.20;99.90;;;;;;5041637;28;20450;-81
2022/04/21 12:37:27;;;;;;;4.37;4.00;;;16.00;99.90;;;;;;5040072;28;20514;-83
2022/04/21 12:40:13;;;;;;;6.60;5.10;;;16.00;99.90;;;;;;5043334;28;20464;-85
2022/04/21 12:42:58;;;;;;;5.53;4.87;;;16.00;99.90;;;;;;5077647;28;20500;-84
2022/04/21 12:45:43;;;;;;;5.57;5.07;;;16.30;99.90;;;;;;5062333;28;20453;-82
2022/04/21 12:48:29;;;;;;;5.90;4.20;;;17.20;99.90;;;;;;5066780;28;20433;-82
2022/04/21 12:51:21;;;;;;;5.50;4.67;;;17.30;99.90;;;;;;5062883;28;20815;-82
2022/04/21 12:54:10;;;;;;;4.83;4.53;;;17.50;99.90;;;;;;5060562;28;20435;-80
2022/04/21 12:56:55;;;;;;;7.13;4.10;;;16.30;99.90;;;;;;5068234;28;20440;-79
2022/04/21 12:59:39;;;;;;;5.53;3.90;;;16.30;99.90;;;;;;5067220;28;20516;-81
2022/04/21 13:02:24;;;;;;;6.00;5.30;;;16.90;99.90;;;;;;5064356;28;20461;-80
2022/04/21 13:05:08;;;;;;;3.83;3.53;;;16.70;99.90;;;;;;5069953;28;20456;-78
2022/04/21 13:07:56;;;;;;;3.90;3.60;;;16.20;99.90;;;;;;5071605;28;20451;-81
2022/04/21 13:10:43;;;;;;;3.80;3.47;;;16.30;99.90;;;;;;5070739;28;20412;-82
2022/04/21 13:13:29;;;;;;;4.47;4.00;;;16.40;99.90;;;;;;5052680;28;20471;-82
2022/04/21 13:16:14;;;;;;;4.30;3.90;;;16.40;99.90;;;;;;5079458;28;20411;-83
2022/04/21 13:19:02;;;;;;;4.80;4.30;;;16.00;99.90;;;;;;5080958;28;20433;-82
2022/04/21 13:22:02;;;;;;;4.70;4.30;;;15.80;99.90;;;;;;5075366;28;20484;-81
2022/04/21 13:24:46;;;;;;;12.80;6.47;;;15.80;99.90;;;;;;5048309;28;20621;-81
2022/04/21 13:27:32;;;;;;;5.00;4.57;;;15.80;99.90;;;;;;5058254;28;20436;-81
2022/04/21 13:30:16;;;;;;;4.87;4.47;;;16.00;99.90;;;;;;5076787;28;20761;-81
2022/04/21 13:36:00;;;;;;;5.30;4.80;;;15.60;99.90;;;;;;5050423;28;20421;-81
2022/04/21 13:38:44;;;;;;;4.37;3.97;;;15.30;99.90;;;;;;5071038;28;20432;-82
2022/04/21 13:41:29;;;;;;;4.20;3.83;;;15.00;99.90;;;;;;5041300;28;20502;-77
2022/04/21 13:44:14;;;;;;;4.90;4.40;;;15.10;99.90;;;;;;5074996;28;20943;-81
2022/04/21 13:46:59;;;;;;;6.53;5.10;;;14.90;99.90;;;;;;5085143;28;20444;-81
2022/04/21 13:49:46;;;;;;;7.10;3.97;;;15.20;99.90;;;;;;5079096;28;20425;-82
2022/04/21 13:52:32;;;;;;;4.80;4.20;;;15.30;99.90;;;;;;5080212;28;20421;-81
2022/04/21 13:55:17;;;;;;;5.40;4.13;;;15.60;99.90;;;;;;5059393;28;20586;-82
2022/04/21 13:58:01;;;;;;;3.60;3.30;;;15.30;99.90;;;;;;5060784;28;20817;-81
2022/04/21 14:00:46;;;;;;;3.30;3.00;;;15.10;99.90;;;;;;5045160;28;20470;-81
2022/04/21 14:03:36;;;;;;;7.13;3.90;;;15.20;99.90;;;;;;5078562;28;20461;-81
2022/04/21 14:06:23;;;;;;;5.10;4.23;;;14.90;99.90;;;;;;5079445;28;20453;-82
2022/04/21 14:09:08;;;;;;;5.10;4.40;;;15.10;99.90;;;;;;5010581;28;20762;-81
2022/04/21 14:11:53;;;;;;;4.70;3.80;;;15.20;99.90;;;;;;5079097;28;20486;-82
2022/04/21 14:14:37;;;;;;;4.40;3.17;;;15.10;99.90;;;;;;5077638;28;20464;-82
2022/04/21 14:17:23;;;;;;;4.67;4.17;;;14.80;99.90;;;;;;5079908;28;20535;-80
2022/04/21 14:20:09;;;;;;;3.63;3.33;;;14.80;99.90;;;;;;5077735;28;20916;-80
2022/04/21 14:22:56;;;;;;;5.63;3.70;;;14.70;99.90;;;;;;5067747;28;20797;-81
2022/04/21 14:25:41;;;;;;;3.80;3.50;;;14.80;99.90;;;;;;5070908;28;20472;-84
2022/04/21 14:28:26;;;;;;;4.37;3.90;;;14.90;99.90;;;;;;5076789;28;20446;-83
2022/04/21 14:31:10;;;;;;;12.33;3.97;;;15.10;99.90;;;;;;5067305;28;20506;-82
2022/04/21 14:33:56;;;;;;;11.43;4.93;;;15.00;99.90;;;;;;5077734;28;20400;-82
2022/04/21 14:36:40;;;;;;;7.53;4.90;;;15.30;99.90;;;;;;5090605;28;20547;-84
2022/04/21 14:45:23;;;;;;;4.27;3.87;;;15.20;99.90;;;;;;5076951;28;20460;-84
2022/04/21 14:48:08;;;;;;;4.03;3.73;;;15.50;99.90;;;;;;5081294;28;20455;-84
2022/04/21 14:50:56;;;;;;;4.27;3.97;;;15.20;99.90;;;;;;5068661;28;20420;-83
2022/04/21 14:53:43;;;;;;;9.27;4.80;;;15.40;99.90;;;;;;5068311;28;20424;-84
2022/04/21 14:56:28;;;;;;;5.23;4.70;;;15.50;99.90;;;;;;5056271;28;20483;-84
2022/04/21 14:59:13;;;;;;;5.80;4.80;;;15.70;99.90;;;;;;5063622;28;20439;-84
2022/04/21 15:01:58;;;;;;;8.80;5.63;;;15.80;99.90;;;;;;5065144;28;20428;-81
2022/04/21 15:04:44;;;;;;;8.73;5.00;;;15.80;99.90;;;;;;5069729;28;20487;-82
2022/04/21 15:07:28;;;;;;;5.30;4.70;;;15.50;99.90;;;;;;5070537;28;20455;-83
2022/04/21 15:10:13;;;;;;;6.50;4.80;;;15.40;99.90;;;;;;5041639;28;20476;-80
2022/04/21 15:12:57;;;;;;;5.07;4.57;;;15.20;99.90;;;;;;5086306;28;20474;-81
2022/04/21 15:15:42;;;;;;;6.77;5.40;;;15.40;99.90;;;;;;5063213;28;20434;-81
2022/04/21 15:18:28;;;;;;;6.37;5.80;;;15.00;99.90;;;;;;5082444;28;20436;-81
2022/04/21 15:21:12;;;;;;;6.90;5.20;;;15.00;99.90;;;;;;5055493;28;20456;-82
2022/04/21 15:23:57;;;;;;;7.63;6.27;;;14.90;99.90;;;;;;5065281;28;20451;-80
2022/04/21 15:26:41;;;;;;;8.40;5.70;;;15.00;99.90;;;;;;5084549;28;20440;-81
2022/04/21 15:29:26;;;;;;;12.90;6.70;;;15.00;99.90;;;;;;5081587;28;20436;-82